createdAt,value
2023-04-17T00:02:42.022Z,5.38
2023-04-17T00:05:46.978Z,4.00
2023-04-17T00:08:50.580Z,3.58
2023-04-17T00:11:53.995Z,3.00
2023-04-17T00:14:57.342Z,3.40
2023-04-17T00:18:00.870Z,3.88
2023-04-17T00:21:04.344Z,3.00
2023-04-17T00:24:08.227Z,3.85
2023-04-17T00:27:11.820Z,3.67
2023-04-17T00:30:15.466Z,6.88
2023-04-17T00:33:18.891Z,3.70
2023-04-17T00:36:22.533Z,2.85
2023-04-17T00:39:26.644Z,2.72
2023-04-17T00:42:30.196Z,2.25
2023-04-17T00:49:28.454Z,2.92
2023-04-17T00:52:32.315Z,4.10
2023-04-17T00:55:38.965Z,2.65
2023-04-17T00:58:42.555Z,2.90
2023-04-17T01:01:46.549Z,2.67
2023-04-17T01:04:50.415Z,3.30
2023-04-17T01:07:55.209Z,4.50
2023-04-17T01:10:58.880Z,3.13
2023-04-17T01:14:02.522Z,3.90
2023-04-17T01:17:07.047Z,3.05
2023-04-17T01:23:17.118Z,2.92
2023-04-17T01:26:22.832Z,3.03
2023-04-17T01:29:26.708Z,2.65
2023-04-17T01:32:31.543Z,2.58
2023-04-17T01:35:35.622Z,1.95
2023-04-17T01:38:39.572Z,1.80
2023-04-17T01:41:43.038Z,1.67
2023-04-17T01:44:46.699Z,1.88
2023-04-17T01:47:52.953Z,1.70
2023-04-17T01:50:56.513Z,1.67
2023-04-17T01:54:00.565Z,1.80
2023-04-17T01:57:04.069Z,2.38
2023-04-17T02:00:08.748Z,1.58
2023-04-17T02:03:15.636Z,1.75
2023-04-17T02:06:19.253Z,2.33
2023-04-17T02:09:23.133Z,4.00
2023-04-17T02:12:26.652Z,2.85
2023-04-17T02:15:30.045Z,3.63
2023-04-17T02:18:33.649Z,2.78
2023-04-17T02:21:37.368Z,2.65
2023-04-17T02:24:41.423Z,1.92
2023-04-17T02:27:44.948Z,1.83
2023-04-17T02:30:48.426Z,2.30
2023-04-17T02:33:52.902Z,1.33
2023-04-17T02:36:56.581Z,1.58
2023-04-17T02:40:00.509Z,2.90
2023-04-17T02:43:03.991Z,1.42
2023-04-17T02:46:07.669Z,5.10
2023-04-17T02:49:11.880Z,1.70
2023-04-17T02:52:16.460Z,2.30
2023-04-17T02:55:20.233Z,1.50
2023-04-17T02:58:23.690Z,2.00
2023-04-17T03:01:27.584Z,1.30
2023-04-17T03:04:31.266Z,1.90
2023-04-17T03:07:37.435Z,1.60
2023-04-17T03:10:43.189Z,1.40
2023-04-17T03:13:46.742Z,4.03
2023-04-17T03:16:50.581Z,1.90
2023-04-17T03:19:54.177Z,5.00
2023-04-17T03:22:57.661Z,1.83
2023-04-17T03:26:01.794Z,1.60
2023-04-17T03:29:08.202Z,2.05
2023-04-17T03:32:12.108Z,3.20
2023-04-17T03:35:15.722Z,2.08
2023-04-17T03:38:20.117Z,3.38
2023-04-17T03:41:23.718Z,3.33
2023-04-17T03:44:27.451Z,2.40
2023-04-17T03:47:34.082Z,2.70
2023-04-17T03:50:37.856Z,2.10
2023-04-17T03:53:41.552Z,2.22
2023-04-17T03:56:47.972Z,2.30
2023-04-17T03:59:51.666Z,2.30
2023-04-17T04:02:59.644Z,1.67
2023-04-17T04:06:13.681Z,2.95
2023-04-17T04:09:22.054Z,1.73
2023-04-17T04:12:26.865Z,3.30
2023-04-17T04:15:30.235Z,2.00
2023-04-17T04:21:44.198Z,1.98
2023-04-17T04:27:57.027Z,1.40
2023-04-17T04:31:05.642Z,2.05
2023-04-17T04:34:18.124Z,2.95
2023-04-17T04:37:30.762Z,1.50
2023-04-17T04:43:48.323Z,2.70
2023-04-17T04:46:56.265Z,1.67
2023-04-17T04:50:03.108Z,1.20
2023-04-17T04:53:19.887Z,2.42
2023-04-17T04:56:32.364Z,3.00
2023-04-17T04:59:38.977Z,2.63
2023-04-17T05:03:07.311Z,2.85
2023-04-17T05:06:12.202Z,2.03
2023-04-17T05:09:20.592Z,2.50
2023-04-17T05:12:25.473Z,2.25
2023-04-17T05:15:29.054Z,1.67
2023-04-17T05:18:32.917Z,7.68
2023-04-17T05:21:37.091Z,1.80
2023-04-17T05:24:40.764Z,3.25
2023-04-17T05:27:44.378Z,1.60
2023-04-17T05:30:48.810Z,2.00
2023-04-17T05:33:58.702Z,1.50
2023-04-17T05:37:04.786Z,3.90
2023-04-17T05:40:09.098Z,2.03
2023-04-17T05:43:13.892Z,1.92
2023-04-17T05:46:17.578Z,1.20
2023-04-17T05:49:23.296Z,1.30
2023-04-17T05:52:26.889Z,2.00
2023-04-17T05:55:30.760Z,2.72
2023-04-17T05:58:37.624Z,2.72
2023-04-17T06:01:42.190Z,1.58
2023-04-17T06:04:46.498Z,1.98
2023-04-17T06:07:51.026Z,1.48
2023-04-17T06:10:57.300Z,1.77
2023-04-17T06:14:01.033Z,1.60
2023-04-17T06:17:04.682Z,2.65
2023-04-17T06:20:13.285Z,1.95
2023-04-17T06:23:17.414Z,1.60
2023-04-17T06:26:20.868Z,2.40
2023-04-17T06:29:26.751Z,1.23
2023-04-17T06:32:30.459Z,1.63
2023-04-17T06:35:41.172Z,1.52
2023-04-17T06:39:01.467Z,1.70
2023-04-17T06:42:07.203Z,1.17
2023-04-17T06:45:15.320Z,1.80
2023-04-17T06:48:34.106Z,1.65
2023-04-17T06:51:37.575Z,2.78
2023-04-17T06:54:41.124Z,1.88
2023-04-17T06:57:44.541Z,1.30
2023-04-17T07:00:48.770Z,1.02
2023-04-17T07:03:52.407Z,1.60
2023-04-17T07:06:56.042Z,2.03
2023-04-17T07:10:01.170Z,1.65
2023-04-17T07:13:04.884Z,1.30
2023-04-17T07:16:10.066Z,2.20
2023-04-17T07:19:14.323Z,2.30
2023-04-17T07:22:17.968Z,1.42
2023-04-17T07:25:21.684Z,1.60
2023-04-17T07:28:26.007Z,1.60
2023-04-17T07:31:37.237Z,2.80
2023-04-17T07:34:43.050Z,1.67
2023-04-17T07:37:46.535Z,2.25
2023-04-17T07:40:49.804Z,2.03
2023-04-17T07:43:53.085Z,2.03
2023-04-17T07:46:56.535Z,2.90
2023-04-17T07:49:59.843Z,2.47
2023-04-17T07:53:03.199Z,2.95
2023-04-17T07:56:07.381Z,1.98
2023-04-17T07:59:11.352Z,4.72
2023-04-17T08:02:16.655Z,1.92
2023-04-17T08:05:20.198Z,3.13
2023-04-17T08:08:24.476Z,2.50
2023-04-17T08:11:27.682Z,2.05
2023-04-17T08:14:31.063Z,3.00
2023-04-17T08:17:34.832Z,5.15
2023-04-17T08:20:38.247Z,3.20
2023-04-17T08:23:42.518Z,3.13
2023-04-17T08:26:45.801Z,3.67
2023-04-17T08:29:49.227Z,3.50
2023-04-17T08:32:52.966Z,1.45
2023-04-17T08:35:56.311Z,2.90
2023-04-17T08:38:59.659Z,2.40
2023-04-17T08:42:19.196Z,4.82
2023-04-17T08:45:27.430Z,2.08
2023-04-17T08:48:32.422Z,5.03
2023-04-17T08:51:36.167Z,2.05
2023-04-17T08:54:40.204Z,1.75
2023-04-17T08:58:04.512Z,2.33
2023-04-17T09:01:13.962Z,1.65
2023-04-17T09:04:36.784Z,1.60
2023-04-17T09:07:41.547Z,1.25
2023-04-17T09:10:47.078Z,2.33
2023-04-17T09:13:50.620Z,2.10
2023-04-17T09:16:58.522Z,1.95
2023-04-17T09:20:08.146Z,2.22
2023-04-17T09:23:11.672Z,1.42
2023-04-17T09:26:17.004Z,2.10
2023-04-17T09:29:20.847Z,2.42
2023-04-17T09:32:24.394Z,1.42
2023-04-17T09:35:28.060Z,2.17
2023-04-17T09:38:38.860Z,2.05
2023-04-17T09:41:42.449Z,2.10
2023-04-17T09:44:45.837Z,1.83
2023-04-17T09:47:49.720Z,2.45
2023-04-17T09:50:53.449Z,1.98
2023-04-17T09:53:59.736Z,2.00
2023-04-17T09:57:04.414Z,2.53
2023-04-17T10:00:12.858Z,2.55
2023-04-17T10:03:18.715Z,2.17
2023-04-17T10:06:22.326Z,5.70
2023-04-17T10:09:25.794Z,2.35
2023-04-17T10:12:30.394Z,3.28
2023-04-17T10:15:41.367Z,2.17
2023-04-17T10:18:44.720Z,1.80
2023-04-17T10:21:51.470Z,2.75
2023-04-17T10:25:13.535Z,2.88
2023-04-17T10:28:50.802Z,1.15
2023-04-17T10:32:24.915Z,2.33
2023-04-17T10:35:28.138Z,3.40
2023-04-17T10:38:37.588Z,4.63
2023-04-17T10:42:05.560Z,2.13
2023-04-17T10:45:20.336Z,3.47
2023-04-17T10:48:46.263Z,5.55
2023-04-17T10:51:49.622Z,2.63
2023-04-17T10:55:16.677Z,3.00
2023-04-17T10:58:20.181Z,1.83
2023-04-17T11:01:43.897Z,3.30
2023-04-17T11:04:47.475Z,3.22
2023-04-17T11:07:53.765Z,3.88
2023-04-17T11:11:00.107Z,1.33
2023-04-17T11:14:12.878Z,2.28
2023-04-17T11:17:17.683Z,2.83
2023-04-17T11:20:26.515Z,3.08
2023-04-17T11:23:36.944Z,2.15
2023-04-17T11:26:47.453Z,2.63
2023-04-17T11:29:50.830Z,1.45
2023-04-17T11:32:54.266Z,2.88
2023-04-17T11:35:57.721Z,1.98
2023-04-17T11:39:01.229Z,1.42
2023-04-17T11:42:04.738Z,1.90
2023-04-17T11:45:08.818Z,1.30
2023-04-17T11:48:13.678Z,2.10
2023-04-17T11:51:19.452Z,1.80
2023-04-17T11:54:27.335Z,2.08
2023-04-17T11:57:30.654Z,2.55
2023-04-17T12:00:38.909Z,3.05
2023-04-17T12:03:44.809Z,2.95
2023-04-17T12:06:48.917Z,2.20
2023-04-17T12:10:00.898Z,3.70
2023-04-17T12:13:05.415Z,3.30
2023-04-17T12:16:11.805Z,2.75
2023-04-17T12:19:19.025Z,1.98
2023-04-17T12:22:25.684Z,3.33
2023-04-17T12:25:29.352Z,1.98
2023-04-17T12:28:32.988Z,1.98
2023-04-17T12:31:36.601Z,2.25
2023-04-17T12:34:40.306Z,2.65
2023-04-17T12:37:49.334Z,2.40
2023-04-17T12:40:55.373Z,2.80
2023-04-17T12:44:03.604Z,8.15
2023-04-17T12:47:07.545Z,2.42
2023-04-17T12:50:12.871Z,1.92
2023-04-17T12:53:18.597Z,2.00
2023-04-17T12:56:22.047Z,1.30
2023-04-17T12:59:25.631Z,2.00
2023-04-17T13:02:32.149Z,1.85
2023-04-17T13:05:35.873Z,2.33
2023-04-17T13:08:40.992Z,1.80
2023-04-17T13:11:44.354Z,2.15
2023-04-17T13:14:47.858Z,2.70
2023-04-17T13:17:53.138Z,3.22
2023-04-17T13:20:57.592Z,2.35
2023-04-17T13:24:01.299Z,2.95
2023-04-17T13:27:05.134Z,2.60
2023-04-17T13:30:09.157Z,0.93
2023-04-17T13:33:15.739Z,3.45
2023-04-17T13:36:28.034Z,1.92
2023-04-17T13:39:31.939Z,2.92
2023-04-17T13:42:35.620Z,3.30
2023-04-17T13:45:42.154Z,2.45
2023-04-17T13:48:45.962Z,2.28
2023-04-17T13:51:55.249Z,2.28
2023-04-17T13:55:23.440Z,1.95
2023-04-17T13:58:26.933Z,2.35
2023-04-17T14:01:30.745Z,2.97
2023-04-17T14:04:34.216Z,2.85
2023-04-17T14:07:40.994Z,2.30
2023-04-17T14:10:44.417Z,2.53
2023-04-17T14:13:47.754Z,1.70
2023-04-17T14:16:51.670Z,1.90
2023-04-17T14:19:54.933Z,1.88
2023-04-17T14:23:07.362Z,1.63
2023-04-17T14:26:14.917Z,2.22
2023-04-17T14:29:18.423Z,2.33
2023-04-17T14:32:21.832Z,2.80
2023-04-17T14:35:25.818Z,2.65
2023-04-17T14:38:29.132Z,1.85
2023-04-17T14:41:34.796Z,2.63
2023-04-17T14:44:38.114Z,2.53
2023-04-17T14:47:44.843Z,3.53
2023-04-17T14:50:48.464Z,3.75
2023-04-17T14:53:54.881Z,2.58
2023-04-17T14:56:58.571Z,2.40
2023-04-17T15:00:02.035Z,2.72
2023-04-17T15:03:05.576Z,2.40
2023-04-17T15:06:09.791Z,2.95
2023-04-17T15:09:18.775Z,2.05
2023-04-17T15:12:22.386Z,1.90
2023-04-17T15:15:25.677Z,2.42
2023-04-17T15:18:29.041Z,2.15
2023-04-17T15:21:32.329Z,2.25
2023-04-17T15:24:37.766Z,2.13
2023-04-17T15:27:41.044Z,2.45
2023-04-17T15:30:44.334Z,2.42
2023-04-17T15:33:48.238Z,2.58
2023-04-17T15:36:51.478Z,2.42
2023-04-17T15:39:54.784Z,4.97
2023-04-17T15:42:58.140Z,2.58
2023-04-17T15:46:02.840Z,2.60
2023-04-17T15:49:09.178Z,2.78
2023-04-17T15:52:12.812Z,2.10
2023-04-17T15:55:16.555Z,2.88
2023-04-17T15:58:20.374Z,3.45
2023-04-17T16:01:23.769Z,3.40
2023-04-17T16:04:30.180Z,3.30
2023-04-17T16:07:51.850Z,4.47
2023-04-17T16:10:55.149Z,4.70
2023-04-17T16:13:58.636Z,4.95
2023-04-17T16:17:02.179Z,7.93
2023-04-17T16:20:06.715Z,7.53
2023-04-17T16:23:10.255Z,5.50
2023-04-17T16:26:15.790Z,5.53
2023-04-17T16:29:19.131Z,5.32
2023-04-17T16:32:25.254Z,5.93
2023-04-17T16:35:30.550Z,6.43
2023-04-17T16:38:36.119Z,6.60
2023-04-17T16:41:39.697Z,6.40
2023-04-17T16:44:42.992Z,4.88
2023-04-17T16:47:46.549Z,5.55
2023-04-17T16:50:52.923Z,4.65
2023-04-17T16:53:56.269Z,4.72
2023-04-17T16:56:59.581Z,4.45
2023-04-17T17:00:03.374Z,3.70
2023-04-17T17:03:06.899Z,3.67
2023-04-17T17:06:13.540Z,2.65
2023-04-17T17:09:17.185Z,3.58
2023-04-17T17:12:20.695Z,3.80
2023-04-17T17:15:24.158Z,3.20
2023-04-17T17:18:27.505Z,3.53
2023-04-17T17:21:34.086Z,2.67
2023-04-17T17:24:37.444Z,3.00
2023-04-17T17:27:40.816Z,2.88
2023-04-17T17:30:44.213Z,3.38
2023-04-17T17:33:50.537Z,2.28
2023-04-17T17:36:53.863Z,3.13
2023-04-17T17:39:57.178Z,3.40
2023-04-17T17:43:03.423Z,3.65
2023-04-17T17:46:16.021Z,3.03
2023-04-17T17:49:19.540Z,2.95
2023-04-17T17:52:47.596Z,3.10
2023-04-17T17:55:55.537Z,2.75
2023-04-17T17:58:58.959Z,2.65
2023-04-17T18:02:02.628Z,2.72
2023-04-17T18:05:07.078Z,2.17
2023-04-17T18:08:36.608Z,1.83
2023-04-17T18:11:40.060Z,1.85
2023-04-17T18:14:43.414Z,1.38
2023-04-17T18:17:47.250Z,1.48
2023-04-17T18:20:51.193Z,1.20
2023-04-17T18:23:54.552Z,1.60
2023-04-17T18:26:57.912Z,1.88
2023-04-17T18:30:01.494Z,2.10
2023-04-17T18:33:04.958Z,1.75
2023-04-17T18:36:09.270Z,2.35
2023-04-17T18:39:14.939Z,2.50
2023-04-17T18:42:18.284Z,2.47
2023-04-17T18:45:22.200Z,2.38
2023-04-17T18:48:25.775Z,2.45
2023-04-17T18:51:29.192Z,2.80
2023-04-17T18:54:40.551Z,2.97
2023-04-17T18:57:45.572Z,3.30
2023-04-17T19:00:49.001Z,3.35
2023-04-17T19:04:17.193Z,3.72
2023-04-17T19:07:20.564Z,3.05
2023-04-17T19:10:27.674Z,3.42
2023-04-17T19:13:32.731Z,5.95
2023-04-17T19:16:36.136Z,5.78
2023-04-17T19:19:39.980Z,4.38
2023-04-17T19:22:43.804Z,3.15
2023-04-17T19:25:54.868Z,2.50
2023-04-17T19:29:23.180Z,3.28
2023-04-17T19:32:31.549Z,2.13
2023-04-17T19:35:35.315Z,2.92
2023-04-17T19:38:38.673Z,3.45
2023-04-17T19:41:43.406Z,1.92
2023-04-17T19:44:47.445Z,1.95
2023-04-17T19:48:16.280Z,2.25
2023-04-17T19:51:23.136Z,2.30
2023-04-17T19:54:29.908Z,2.30
2023-04-17T19:57:37.260Z,3.00
2023-04-17T20:00:43.715Z,2.45
2023-04-17T20:03:52.144Z,3.55
2023-04-17T20:06:59.582Z,2.92
2023-04-17T20:10:18.821Z,3.35
2023-04-17T20:13:25.700Z,2.65
2023-04-17T20:16:29.141Z,2.47
2023-04-17T20:19:35.622Z,2.42
2023-04-17T20:22:45.054Z,2.70
2023-04-17T20:25:48.812Z,2.78
2023-04-17T20:28:55.429Z,2.25
2023-04-17T20:32:00.057Z,2.33
2023-04-17T20:35:11.423Z,2.45
2023-04-17T20:38:16.881Z,2.50
2023-04-17T20:41:20.786Z,3.92
2023-04-17T20:44:49.665Z,3.10
2023-04-17T20:47:56.940Z,3.38
2023-04-17T20:51:06.325Z,2.60
2023-04-17T20:54:09.720Z,2.95
2023-04-17T20:57:13.109Z,3.33
2023-04-17T21:00:17.004Z,2.70
2023-04-17T21:03:20.814Z,2.50
2023-04-17T21:06:25.146Z,2.65
2023-04-17T21:09:53.401Z,2.95
2023-04-17T21:12:56.737Z,3.38
2023-04-17T21:16:03.120Z,2.97
2023-04-17T21:19:06.637Z,2.65
2023-04-17T21:22:11.497Z,2.60
2023-04-17T21:25:22.299Z,3.97
2023-04-17T21:28:28.507Z,5.07
2023-04-17T21:31:38.909Z,6.15
2023-04-17T21:35:07.805Z,13.85
2023-04-17T21:38:11.337Z,20.80
2023-04-17T21:41:14.841Z,19.23
2023-04-17T21:44:18.160Z,16.55
2023-04-17T21:47:21.726Z,15.70
2023-04-17T21:50:25.198Z,17.02
2023-04-17T21:53:28.581Z,15.48
2023-04-17T21:56:32.524Z,13.25
2023-04-17T21:59:36.273Z,11.27
2023-04-17T22:02:40.002Z,11.75
2023-04-17T22:05:43.537Z,10.45
2023-04-17T22:08:47.139Z,10.40
2023-04-17T22:11:51.178Z,8.80
2023-04-17T22:14:54.540Z,8.45
2023-04-17T22:17:59.624Z,6.65
2023-04-17T22:21:03.048Z,6.85
2023-04-17T22:24:06.674Z,7.57
2023-04-17T22:27:10.108Z,10.10
2023-04-17T22:30:14.352Z,6.07
2023-04-17T22:33:17.773Z,5.32
2023-04-17T22:36:21.168Z,6.32
2023-04-17T22:39:24.567Z,6.75
2023-04-17T22:42:28.046Z,6.20
2023-04-17T22:45:31.583Z,6.45
2023-04-17T22:48:37.611Z,4.90
2023-04-17T22:51:41.955Z,4.75
2023-04-17T22:54:45.501Z,6.40
2023-04-17T22:57:48.861Z,4.78
2023-04-17T23:01:17.938Z,3.67
2023-04-17T23:04:33.579Z,5.38
2023-04-17T23:07:37.166Z,5.03
2023-04-17T23:10:44.472Z,5.28
2023-04-17T23:13:48.245Z,5.13
2023-04-17T23:17:16.971Z,8.43
2023-04-17T23:20:25.943Z,7.30
2023-04-17T23:23:29.547Z,6.00
2023-04-17T23:26:35.350Z,13.65
2023-04-17T23:29:42.680Z,17.88
2023-04-17T23:32:51.486Z,14.45
2023-04-17T23:35:54.922Z,15.65
2023-04-17T23:38:58.336Z,12.55
2023-04-17T23:42:07.899Z,12.32
2023-04-17T23:45:11.844Z,11.93
2023-04-17T23:48:17.916Z,10.70
2023-04-17T23:51:21.707Z,8.93
2023-04-17T23:54:32.617Z,8.38
2023-04-17T23:57:38.559Z,8.27
